Historique des mesures à Cassis (13260), France
Quotidien Résumé Juin 23, 2018 Unités:  Métrique    US   Métrique/US
« Précédent (Jour)
Suivant (Jour) »
Quotidien Hebdomadaire Mensuel Annuel Période au choix
  Maximum: Minimum: Moyenne:
Température: TemperatureC °C 20.9 °C 24.3 °C
Point de rosée: DewpointC °C 10.4 °C 14.8 °C
Humidité: Humidity % 46 % 52 %
Vitesse du vent: 0 km/h 0 km/h 2.6 km/h
Rafales: 0 km/h - -
Vent:- - South
Pression: PressurehPa hPa 1009.9 hPa -
Précipitations: 0.0 mm    
Historical Graphs
 
 
Mesures pour : Juin 23, 2018
Heure Temperature Point de rosée Pression Vent Vitesse du vent Rafales Humidité Pluie (par heure) Conditions
TemperatureC °C DewpointC °C PressurehPa hPa Calm     Humidity % HourlyPrecipMM mm SoftwareType W/m2
00:10 23.4 °C 11.1 °C 1009.9 hPa NNW 4.2 km/h 5.1 km/h 46 % 0.0 mm open2300-1.11 W/m2
01:10 23.1 °C 11.4 °C 1010.5 hPa Calm   1.8 km/h 48 % 0.0 mm open2300-1.11 W/m2
02:10 22.3 °C 11.4 °C 1010.6 hPa Calm     50 % 0.0 mm open2300-1.11 W/m2
03:10 22.2 °C 11.3 °C 1010.9 hPa NW 2.3 km/h 4.7 km/h 50 % 0.0 mm open2300-1.11 W/m2
04:10 21.8 °C 10.9 °C 1010.9 hPa Calm     50 % 0.0 mm open2300-1.11 W/m2
05:10 21.6 °C 10.4 °C 1011.2 hPa Calm   2.3 km/h 49 % 0.0 mm open2300-1.11 W/m2
06:10 20.9 °C 11.5 °C 1011.7 hPa North 2.9 km/h 5.1 km/h 55 % 0.0 mm open2300-1.11 W/m2
07:10 21.4 °C 12.5 °C 1011.8 hPa Calm   7.6 km/h 57 % 0.0 mm open2300-1.11 W/m2
08:10 24.2 °C 14.3 °C 1012.5 hPa Calm     54 % 0.0 mm open2300-1.11 W/m2
09:10 24.0 °C 14.1 °C 1012.9 hPa ESE 2.9 km/h 4.7 km/h 54 % 0.0 mm open2300-1.11 W/m2
10:10 26.6 °C 17.4 °C 1013.2 hPa SSE 4.7 km/h 4.7 km/h 57 % 0.0 mm open2300-1.11 W/m2
11:10 29.9 °C 19.3 °C 1013.5 hPa SW 5.1 km/h 5.1 km/h 53 % 0.0 mm open2300-1.11 W/m2
12:10 30.5 °C 19.2 °C 1013.8 hPa WSW 3.4 km/h 8 km/h 51 % 0.0 mm open2300-1.11 W/m2
13:10 30.3 °C 19.3 °C 1014.0 hPa West 2.9 km/h 9.3 km/h 52 % 0.0 mm open2300-1.11 W/m2
14:10 27.8 °C 18.4 °C 1014.2 hPa ESE 4.7 km/h 5.1 km/h 57 % 0.0 mm open2300-1.11 W/m2
15:10 27.9 °C 18.8 °C 1013.5 hPa SSW 3.4 km/h 8.9 km/h 58 % 0.0 mm open2300-1.11 W/m2
16:10 28.7 °C 19.1 °C 1013.4 hPa SSW 5.1 km/h 5.1 km/h 56 % 0.0 mm open2300-1.11 W/m2
17:10 28.2 °C 18.8 °C 1013.3 hPa South 10.3 km/h 10.3 km/h 57 % 0.0 mm open2300-1.11 W/m2
18:10 28.6 °C 18.3 °C 1013.1 hPa SE 5.6 km/h 12.2 km/h 54 % 0.0 mm open2300-1.11 W/m2
19:10 27.3 °C 18.0 °C 1012.5 hPa South 3.4 km/h 11.6 km/h 57 % 0.0 mm open2300-1.11 W/m2
20:10 26.4 °C 17.8 °C 1012.6 hPa SE 4.2 km/h 9.3 km/h 59 % 0.0 mm open2300-1.11 W/m2
21:10 24.9 °C 17.1 °C 1012.7 hPa Calm     62 % 0.0 mm open2300-1.11 W/m2
22:10 23.6 °C 15.9 °C 1013.2 hPa Calm     62 % 0.0 mm open2300-1.11 W/m2
23:10 22.2 °C 14.6 °C 1013.2 hPa Calm     62 % 0.0 mm open2300-1.11 W/m2
Observations météo à CASSIS
WU-History script by Weather Underground - 1 mb